Página principal
METAR-TAF:

METAR-TAF

Aeroportos :

Irkutsk, Rússia

latitude: 52-16N, longitude: 104-19E, altura: 513 m

Observação actual do tempo

O boletim foi feito há 33 minutos, às 17:00 UTC
Vento 2 kt com direcção variável
Temperatura -7°C
Humidade 73%
Pressão 1027 hPa
Visibilidade 10 km ou mais
sem nuvens abaixo de 1500 metros e sem cumulonimbus

METAR: UIII 201700Z VRB01MPS CAVOK M07/M11 Q1027 R30/60D NOSIG RMK QFE725/0967

Hora: 01:33 (17:33 UTC)

Previsão

O boletim foi feito há 3 horas e 33 minutos, às 14:00 UTC
Previsão válida de 20 às 15 UTC a 21 às 15 UTC
Vento 6 kt de oes-noroeste
Visibilidade 10 km ou mais
Nuvens fragmentadasa uma altura de 1200 ft, Cumulonimbus.
Temporariamente
de 20 às 21 UTC a 21 às 15 UTC
Visibilidade: 0900 m
a uma altura de 400 ft
aguaceiros fortes de neve
Tornando-se
de 21 às 01 UTC a 21 às 03 UTC
Vento 19 kt de oes-noroeste

TAF: UIII 201400Z 2015/2115 30003MPS 9999 BKN012CB TEMPO 2021/2115 0900 +SHSN VV004 BECMG 2101/2103 30010MPS

Observações e previsões do tempo de mais de 4000 aeroportos (mensagens METAR e TAF).

As estações disponíveis são os pontos amarelos e vermelhos sobre o mapa.

Mova o rato sobre o mapa para ver o nome da estação.

Depois clique no ponto para visualizar as observações e previsões meteorológicas.

Para alterar o mapa : clique nos botões verdes com uma cruz preta para aumentar o zoom; no botão verde com uma pitada de zoom; ou nas setas verdes para mapas adjacentes.


METAR-TAF: